Time;durP1;ratioP1;P1;durP2;ratioP2;P2;SDS_P1;SDS_P2;PMS_P1;PMS_P2;Temp;Humidity;BMP_temperature;BMP_pressure;BME280_temperature;BME280_humidity;BME280_pressure;Samples;Min_cycle;Max_cycle;Signal;HPM_P1;HPM_P2
2022/08/04 00:02:26;;;;;;;34.05;13.10;;;;;;;19.66;100.00;101316.19;10442063;28;20527;-90
2022/08/04 00:07:47;;;;;;;38.20;15.02;;;;;;;19.77;100.00;101322.44;10426245;28;20033;-90
2022/08/04 00:12:50;;;;;;;28.63;14.73;;;;;;;19.62;100.00;101298.38;10443211;28;20071;-86
2022/08/04 00:17:53;;;;;;;32.67;15.18;;;;;;;19.66;100.00;101311.41;10428004;28;20574;-91
2022/08/04 00:22:54;;;;;;;32.55;14.07;;;;;;;19.66;100.00;101316.19;10426893;28;20052;-91
2022/08/04 00:27:54;;;;;;;30.75;13.57;;;;;;;19.55;100.00;101287.56;10425803;28;20033;-90
2022/08/04 00:32:56;;;;;;;27.67;13.93;;;;;;;19.61;100.00;101310.66;10441094;28;20041;-89
2022/08/04 00:37:57;;;;;;;29.48;14.48;;;;;;;19.49;100.00;101297.16;10426667;28;20049;-92
2022/08/04 00:42:57;;;;;;;27.63;14.20;;;;;;;19.49;100.00;101306.41;10458036;28;20037;-86
2022/08/04 00:48:06;;;;;;;31.58;14.93;;;;;;;19.40;100.00;101287.84;10439802;28;20080;-90
2022/08/04 00:53:12;;;;;;;30.40;15.98;;;;;;;19.39;100.00;101295.41;10458115;28;20116;-92
2022/08/04 00:58:41;;;;;;;34.85;15.05;;;;;;;19.36;100.00;101290.41;10427262;28;20085;-96
2022/08/04 01:03:50;;;;;;;33.60;16.27;;;;;;;19.18;100.00;101271.72;10443719;28;20397;-92
2022/08/04 01:09:24;;;;;;;32.55;14.02;;;;;;;19.14;100.00;101275.13;10445551;28;20033;-96
2022/08/04 01:14:46;;;;;;;35.25;16.38;;;;;;;19.11;100.00;101281.28;10452071;28;20048;-95
2022/08/04 01:20:14;;;;;;;41.92;15.30;;;;;;;19.07;100.00;101271.84;10468594;28;20056;-96
2022/08/04 01:25:44;;;;;;;32.25;13.50;;;;;;;19.06;100.00;101274.94;10466687;28;20037;-92
2022/08/04 01:30:45;;;;;;;38.95;15.88;;;;;;;19.03;100.00;101269.97;10433967;28;20060;-92
2022/08/04 01:35:56;;;;;;;29.42;14.35;;;;;;;18.90;100.00;101254.84;10451082;28;20045;-95
2022/08/04 01:40:59;;;;;;;32.60;15.00;;;;;;;18.86;100.00;101259.34;10452479;28;20074;-96
2022/08/04 01:46:01;;;;;;;30.70;14.77;;;;;;;18.71;100.00;101236.09;10435540;28;20037;-94
2022/08/04 01:51:05;;;;;;;30.30;16.02;;;;;;;18.82;100.00;101266.66;10420130;28;20033;-95
2022/08/04 01:56:08;;;;;;;31.13;14.57;;;;;;;18.71;100.00;101257.59;10433702;28;20405;-95
2022/08/04 02:01:10;;;;;;;39.95;17.92;;;;;;;18.53;100.00;101234.13;10450069;28;20045;-95
2022/08/04 02:06:13;;;;;;;32.60;14.65;;;;;;;18.63;100.00;101255.47;10451651;28;20150;-96
2022/08/04 02:11:15;;;;;;;34.50;15.55;;;;;;;18.53;100.00;101242.47;10466594;28;20044;-91
2022/08/04 02:16:28;;;;;;;25.25;13.90;;;;;;;18.46;100.00;101236.41;10431946;28;20079;-93
2022/08/04 02:21:29;;;;;;;28.52;14.77;;;;;;;18.33;100.00;101235.19;10432223;28;20088;-93
2022/08/04 02:26:31;;;;;;;31.52;14.77;;;;;;;18.36;100.00;101237.41;10418256;28;20456;-95
2022/08/04 02:31:38;;;;;;;26.50;14.20;;;;;;;18.30;100.00;101231.06;10431040;28;20412;-92
2022/08/04 02:36:40;;;;;;;29.08;14.57;;;;;;;18.33;100.00;101233.25;10447627;28;20044;-92
2022/08/04 02:41:40;;;;;;;26.20;15.15;;;;;;;18.29;100.00;101229.41;10431230;28;20040;-91
2022/08/04 02:46:41;;;;;;;32.20;14.80;;;;;;;18.17;100.00;101223.44;10446693;28;20327;-94
2022/08/04 02:51:46;;;;;;;28.40;14.23;;;;;;;18.18;100.00;101218.69;10414873;28;20104;-92
2022/08/04 02:56:47;;;;;;;24.20;15.43;;;;;;;18.12;100.00;101212.31;10413984;28;20071;-93
2022/08/04 03:01:47;;;;;;;34.45;15.80;;;;;;;18.12;100.00;101217.91;10413912;28;20036;-94
2022/08/04 03:07:16;;;;;;;28.88;16.63;;;;;;;18.12;100.00;101224.28;10428341;28;20044;-92
2022/08/04 03:13:05;;;;;;;30.98;16.42;;;;;;;18.08;100.00;101219.63;10444649;28;20492;-93
2022/08/04 03:18:20;;;;;;;28.60;16.15;;;;;;;18.03;100.00;101223.31;10370560;28;20045;-92
2022/08/04 03:23:42;;;;;;;32.65;15.52;;;;;;;17.98;100.00;101212.19;10463913;28;20047;-94
2022/08/04 03:28:54;;;;;;;32.53;16.58;;;;;;;17.95;100.00;101208.06;10429577;28;20067;-91
2022/08/04 03:33:59;;;;;;;34.00;16.48;;;;;;;17.91;100.00;101201.41;10442835;28;20059;-88
2022/08/04 03:39:26;;;;;;;30.23;16.67;;;;;;;17.90;100.00;101199.78;10443542;28;20075;-92
2022/08/04 03:44:45;;;;;;;32.58;16.73;;;;;;;17.88;100.00;101202.03;10459762;28;20496;-88
2022/08/04 03:50:01;;;;;;;26.63;15.10;;;;;;;17.87;100.00;101200.34;10457934;28;20063;-88
2022/08/04 03:55:22;;;;;;;31.73;15.98;;;;;;;17.88;100.00;101202.03;10462171;28;20157;-93
2022/08/04 04:01:01;;;;;;;29.13;16.45;;;;;;;17.87;100.00;101188.38;10458816;28;20048;-92
2022/08/04 04:06:22;;;;;;;31.80;16.63;;;;;;;17.75;100.00;101170.09;10434923;28;20055;-89
2022/08/04 04:11:38;;;;;;;35.10;17.92;;;;;;;17.92;100.00;101188.31;10458133;28;20036;-90
2022/08/04 04:16:48;;;;;;;35.40;18.05;;;;;;;17.97;100.00;101204.16;10458770;28;20047;-92
2022/08/04 04:22:26;;;;;;;41.55;21.33;;;;;;;18.05;100.00;101189.59;10442021;28;20040;-85
2022/08/04 04:27:42;;;;;;;30.77;16.67;;;;;;;18.13;100.00;101186.13;10459778;28;20041;-92
2022/08/04 04:33:02;;;;;;;29.10;18.25;;;;;;;18.15;100.00;101173.56;10442056;28;20057;-92
2022/08/04 04:38:22;;;;;;;33.22;19.00;;;;;;;18.32;100.00;101206.50;10427520;28;20048;-92
2022/08/04 04:43:36;;;;;;;29.60;18.08;;;;;;;18.33;100.00;101173.88;10445404;28;20068;-93
2022/08/04 04:48:57;;;;;;;38.10;19.20;;;;;;;18.51;100.00;101175.03;10467930;28;20048;-94
2022/08/04 04:54:07;;;;;;;35.78;19.40;;;;;;;18.52;100.00;101162.75;10448952;28;20091;-90
2022/08/04 04:59:14;;;;;;;33.30;20.15;;;;;;;18.60;100.00;101156.47;10449978;28;20118;-94
2022/08/04 05:04:14;;;;;;;;;;;;;;;18.83;100.00;101174.31;10451563;28;20047;-92
2022/08/04 05:09:15;;;;;;;31.75;18.45;;;;;;;18.91;100.00;101172.78;10450343;28;19917;-90
2022/08/04 05:14:31;;;;;;;34.90;17.63;;;;;;;18.87;100.00;101155.84;10469647;28;20051;-91
2022/08/04 05:19:40;;;;;;;35.03;17.15;;;;;;;19.10;100.00;101178.31;10450891;28;20029;-93
2022/08/04 05:24:43;;;;;;;27.25;16.83;;;;;;;19.15;100.00;101162.34;10468361;28;20039;-94
2022/08/04 05:29:52;;;;;;;28.55;16.30;;;;;;;19.21;100.00;101162.25;10449946;28;20088;-94
2022/08/04 05:34:56;;;;;;;26.30;16.05;;;;;;;19.42;100.00;101155.16;10434895;28;20101;-94
2022/08/04 05:40:03;;;;;;;30.33;15.00;;;;;;;19.62;100.00;101162.34;10450823;28;20041;-94
2022/08/04 05:45:05;;;;;;;22.27;13.15;;;;;;;19.77;100.00;101150.06;10433511;28;20108;-93
2022/08/04 05:50:06;;;;;;;25.23;12.15;;;;;;;20.03;100.00;101142.00;10434710;28;20059;-95
2022/08/04 05:55:07;;;;;;;23.98;10.52;;;;;;;20.20;100.00;101141.34;10448745;28;20082;-92
2022/08/04 06:00:08;;;;;;;21.48;12.25;;;;;;;20.47;100.00;101142.44;10430200;28;20053;-88
2022/08/04 06:05:08;;;;;;;16.55;10.38;;;;;;;20.71;100.00;101134.63;10428421;28;20530;-90
2022/08/04 06:10:09;;;;;;;26.05;10.30;;;;;;;21.26;100.00;101135.50;10410968;28;20029;-90
2022/08/04 06:15:12;;;;;;;16.75;8.73;;;;;;;21.55;100.00;101140.63;10443362;28;20044;-89
2022/08/04 06:20:13;;;;;;;17.08;8.70;;;;;;;21.88;100.00;101145.88;10410139;28;20044;-92
2022/08/04 06:25:16;;;;;;;20.63;8.75;;;;;;;22.18;100.00;101141.34;10425424;28;20041;-88
2022/08/04 06:30:18;;;;;;;14.50;6.78;;;;;;;22.48;100.00;101150.00;10441711;28;20032;-92
2022/08/04 06:35:18;;;;;;;16.60;8.73;;;;;;;22.52;100.00;101148.16;10424862;28;20045;-86
2022/08/04 06:40:20;;;;;;;17.65;8.68;;;;;;;22.70;100.00;101157.44;10406303;28;20039;-85
2022/08/04 06:45:21;;;;;;;15.82;8.85;;;;;;;22.85;100.00;101156.94;10401891;28;20037;-86
2022/08/04 06:50:21;;;;;;;18.42;9.25;;;;;;;23.24;100.00;101149.47;10386924;28;20032;-87
2022/08/04 06:55:23;;;;;;;21.27;8.55;;;;;;;23.47;100.00;101164.13;10419431;28;20064;-87
2022/08/04 07:00:24;;;;;;;17.75;8.90;;;;;;;23.54;100.00;101170.06;10416821;28;20037;-86
2022/08/04 07:05:24;;;;;;;18.20;8.57;;;;;;;23.69;100.00;101171.50;10430347;28;20045;-85
2022/08/04 07:10:28;;;;;;;17.38;8.40;;;;;;;23.75;100.00;101152.44;10418105;28;20037;-85
2022/08/04 07:15:29;;;;;;;21.55;7.82;;;;;;;23.85;100.00;101149.28;10399706;28;20485;-84
2022/08/04 07:20:29;;;;;;;15.55;6.50;;;;;;;24.02;100.00;101151.22;10386698;28;20034;-85
2022/08/04 07:25:30;;;;;;;19.30;7.15;;;;;;;24.06;100.00;101145.72;10409760;28;20062;-87
2022/08/04 07:30:30;;;;;;;17.17;6.82;;;;;;;24.35;100.00;101154.16;10400527;28;20053;-85
2022/08/04 07:35:31;;;;;;;9.85;5.53;;;;;;;24.77;100.00;101153.34;10410495;28;20045;-83
2022/08/04 07:40:31;;;;;;;14.40;4.82;;;;;;;24.88;100.00;101156.56;10401024;28;20512;-90
2022/08/04 07:45:32;;;;;;;16.02;4.97;;;;;;;24.74;100.00;101138.00;10387381;28;20482;-88
2022/08/04 07:50:33;;;;;;;19.40;5.47;;;;;;;24.87;100.00;101138.03;10426545;28;20123;-85
2022/08/04 07:55:33;;;;;;;14.82;6.15;;;;;;;25.03;100.00;101141.84;10413472;28;20072;-87
2022/08/04 08:00:34;;;;;;;10.38;4.70;;;;;;;25.31;100.00;101130.00;10397064;28;20037;-87
2022/08/04 08:05:34;;;;;;;11.02;4.80;;;;;;;25.85;100.00;101143.09;10395755;28;20406;-87
2022/08/04 08:10:35;;;;;;;12.50;4.70;;;;;;;25.94;100.00;101127.75;10423994;28;20060;-87
2022/08/04 08:15:35;;;;;;;12.93;4.75;;;;;;;25.93;100.00;101097.06;10380925;28;20151;-85
2022/08/04 08:20:36;;;;;;;9.48;4.15;;;;;;;26.14;100.00;101131.59;10392587;28;20033;-75
2022/08/04 08:25:36;;;;;;;17.30;4.55;;;;;;;26.34;100.00;101129.00;10429805;28;20033;-85
2022/08/04 08:30:37;;;;;;;12.35;4.50;;;;;;;26.46;100.00;101114.84;10386511;28;20041;-88
2022/08/04 08:35:43;;;;;;;13.73;3.97;;;;;;;26.69;100.00;101103.03;10411877;28;20034;-88
2022/08/04 08:41:03;;;;;;;13.20;4.60;;;;;;;26.82;100.00;101110.28;10462673;28;20050;-89
2022/08/04 08:46:15;;;;;;;9.15;3.65;;;;;;;27.34;99.41;101109.31;10430607;28;20050;-86
2022/08/04 08:52:00;;;;;;;15.35;4.13;;;;;;;27.68;95.50;101100.47;10414628;28;20082;-86
2022/08/04 08:57:08;;;;;;;11.43;3.22;;;;;;;27.61;94.99;101075.66;10448130;28;20113;-85
2022/08/04 09:02:32;;;;;;;11.82;3.38;;;;;;;27.77;93.73;101101.91;10444911;28;20037;-89
2022/08/04 09:07:54;;;;;;;7.22;2.90;;;;;;;27.85;93.68;101108.59;10447909;28;20045;-86
2022/08/04 09:13:10;;;;;;;9.57;3.08;;;;;;;28.05;91.91;101097.34;10420097;28;20047;-92
2022/08/04 09:18:16;;;;;;;12.27;2.73;;;;;;;27.98;92.86;101098.81;10444227;28;20057;-87
2022/08/04 09:23:27;;;;;;;14.88;3.05;;;;;;;28.35;90.74;101094.81;10441787;28;20045;-86
2022/08/04 09:28:30;;;;;;;9.18;3.22;;;;;;;28.81;87.71;101082.81;10465349;28;20053;-88
2022/08/04 09:33:36;;;;;;;15.45;3.08;;;;;;;29.27;88.51;101094.25;10444627;28;20572;-89
2022/08/04 09:38:57;;;;;;;10.07;2.63;;;;;;;29.41;84.01;101080.34;10460003;28;20033;-87
2022/08/04 09:44:01;;;;;;;6.22;2.53;;;;;;;29.73;81.92;101077.25;10444658;28;20041;-83
2022/08/04 09:49:16;;;;;;;9.30;2.55;;;;;;;30.06;81.30;101084.25;10443282;28;20044;-86
2022/08/04 09:54:23;;;;;;;10.70;3.47;;;;;;;30.31;77.19;101078.94;10428876;28;20660;-86
2022/08/04 09:59:26;;;;;;;6.38;1.98;;;;;;;30.21;77.94;101068.22;10437258;28;20042;-84
2022/08/04 10:04:28;;;;;;;8.05;2.50;;;;;;;30.34;76.39;101066.81;10368936;28;20076;-92
2022/08/04 10:10:19;;;;;;;10.15;3.00;;;;;;;30.25;78.19;101075.59;10369065;28;20548;-88
2022/08/04 10:15:30;;;;;;;5.93;2.40;;;;;;;30.46;76.42;101063.72;10412537;28;20459;-91
2022/08/04 10:21:11;;;;;;;8.93;2.63;;;;;;;30.35;74.00;101063.59;10442653;28;20051;-88
2022/08/04 10:26:14;;;;;;;7.05;2.30;;;;;;;30.45;73.14;101066.94;10458092;28;20072;-85
2022/08/04 10:31:19;;;;;;;10.88;2.67;;;;;;;30.26;72.87;101063.00;10458952;28;20056;-81
2022/08/04 10:36:22;;;;;;;14.73;2.80;;;;;;;30.44;73.19;101065.31;10425223;28;20037;-90
2022/08/04 10:41:28;;;;;;;9.05;2.40;;;;;;;30.59;72.70;101078.47;10424291;28;20396;-86
2022/08/04 10:46:31;;;;;;;10.10;3.22;;;;;;;30.94;72.78;101068.78;10440900;28;20519;-94
2022/08/04 10:51:53;;;;;;;11.30;2.70;;;;;;;31.22;75.20;101084.50;10424169;28;20060;-86
2022/08/04 10:57:07;;;;;;;4.57;2.55;;;;;;;31.40;74.38;101085.50;10425535;28;20082;-90
2022/08/04 11:02:25;;;;;;;5.03;2.75;;;;;;;31.46;72.56;101083.94;10419533;28;20037;-88
2022/08/04 11:07:26;;;;;;;11.02;3.50;;;;;;;31.69;73.41;101085.75;10398326;28;20049;-96
2022/08/04 11:12:27;;;;;;;13.70;3.00;;;;;;;31.69;72.58;101088.59;10366523;28;20049;-90
2022/08/04 11:17:34;;;;;;;8.25;3.40;;;;;;;31.69;73.17;101074.34;10382418;28;20046;-86
2022/08/04 11:22:35;;;;;;;9.98;4.07;;;;;;;31.75;73.21;101104.94;10383047;28;20117;-88
2022/08/04 11:27:54;;;;;;;11.98;3.00;;;;;;;31.74;71.76;101103.28;10396008;28;20053;-85
2022/08/04 11:33:27;;;;;;;6.50;3.00;;;;;;;31.32;71.02;101120.78;10431434;28;20037;-89
2022/08/04 11:38:36;;;;;;;6.60;2.50;;;;;;;31.53;72.68;101108.81;10411169;28;20481;-88
2022/08/04 11:43:42;;;;;;;7.05;3.10;;;;;;;31.88;70.11;101111.13;10402487;28;20056;-88
2022/08/04 11:48:59;;;;;;;7.88;3.20;;;;;;;31.61;71.87;101126.72;10437520;28;20073;-92
2022/08/04 11:54:00;;;;;;;4.85;2.53;;;;;;;30.87;70.61;101085.72;10387772;28;20104;-86
2022/08/04 11:59:00;;;;;;;7.63;2.22;;;;;;;30.99;70.27;101113.91;10422432;28;20037;-92
2022/08/04 12:04:04;;;;;;;8.15;2.55;;;;;;;30.85;71.56;101154.31;10409061;28;20545;-86
2022/08/04 12:09:25;;;;;;;9.70;2.20;;;;;;;30.78;71.53;101160.75;10417315;28;20040;-89
2022/08/04 12:14:27;;;;;;;6.07;2.10;;;;;;;30.37;71.32;101169.13;10454513;28;20083;-92
2022/08/04 12:19:50;;;;;;;6.90;1.92;;;;;;;29.58;72.88;101175.44;10451889;28;20045;-87
2022/08/04 12:25:02;;;;;;;10.32;1.85;;;;;;;29.07;72.26;101173.66;10436451;28;20065;-87
2022/08/04 12:30:03;;;;;;;8.25;2.22;;;;;;;28.96;74.82;101189.59;10446621;28;20457;-87
2022/08/04 12:35:10;;;;;;;7.57;1.65;;;;;;;28.65;75.95;101205.56;10441077;28;20034;-87
2022/08/04 12:40:17;;;;;;;7.75;2.10;;;;;;;28.03;80.49;101181.78;10425690;28;20052;-86
2022/08/04 12:45:18;;;;;;;6.53;2.33;;;;;;;28.14;82.47;101214.03;10399003;28;20033;-88
2022/08/04 12:50:18;;;;;;;6.53;2.28;;;;;;;28.00;85.82;101213.66;10400027;28;20039;-89
2022/08/04 12:55:22;;;;;;;7.85;2.08;;;;;;;27.54;88.98;101214.88;10396326;28;20653;-91
2022/08/04 13:00:41;;;;;;;6.22;2.00;;;;;;;27.28;91.13;101262.59;10390616;28;20034;-92
2022/08/04 13:05:42;;;;;;;6.22;1.45;;;;;;;26.88;92.55;101295.28;10410646;28;20038;-87
2022/08/04 13:10:46;;;;;;;4.90;1.27;;;;;;;26.64;94.96;101323.56;10410398;28;20040;-89
2022/08/04 13:16:06;;;;;;;5.70;2.30;;;;;;;26.33;100.00;101314.44;10427889;28;20056;-90
2022/08/04 13:21:20;;;;;;;2.33;1.30;;;;;;;26.00;100.00;101331.44;10393849;28;20111;-87
2022/08/04 13:26:20;;;;;;;6.53;1.23;;;;;;;25.59;100.00;101310.59;10432758;28;20045;-85
2022/08/04 13:31:22;;;;;;;4.50;1.55;;;;;;;25.58;100.00;101315.41;10448041;28;20029;-88
2022/08/04 13:36:23;;;;;;;4.10;1.85;;;;;;;25.76;99.90;101289.88;10420248;28;20089;-86
2022/08/04 13:41:25;;;;;;;6.28;2.17;;;;;;;26.53;93.81;101278.00;10407749;28;20075;-85
2022/08/04 13:46:27;;;;;;;2.47;1.30;;;;;;;27.17;89.72;101285.69;10397645;28;20037;-86
2022/08/04 13:51:27;;;;;;;2.85;0.93;;;;;;;28.03;85.46;101252.53;10432656;28;20053;-88
2022/08/04 13:56:38;;;;;;;2.13;0.80;;;;;;;29.90;76.73;101221.47;10409684;28;20033;-84
2022/08/04 14:01:41;;;;;;;2.83;0.90;;;;;;;31.24;71.55;101224.31;10380360;28;20041;-87
2022/08/04 14:07:00;;;;;;;4.93;0.90;;;;;;;32.31;67.19;101210.31;10378771;28;20045;-83
2022/08/04 14:12:08;;;;;;;3.20;1.42;;;;;;;31.67;66.60;101182.09;10379382;28;20076;-84
2022/08/04 14:17:14;;;;;;;6.28;1.15;;;;;;;32.46;64.79;101182.75;10393675;28;20092;-83
2022/08/04 14:22:24;;;;;;;2.83;1.38;;;;;;;32.63;63.98;101184.91;10396013;28;20049;-86
2022/08/04 14:27:27;;;;;;;4.03;1.27;;;;;;;32.90;61.55;101170.38;10395659;28;20075;-85
2022/08/04 14:32:27;;;;;;;3.03;1.10;;;;;;;33.13;61.60;101188.00;10414585;28;20662;-84
2022/08/04 14:37:28;;;;;;;2.22;0.80;;;;;;;32.45;60.74;101175.41;10383966;28;20034;-86
2022/08/04 14:42:41;;;;;;;2.10;1.10;;;;;;;32.52;61.97;101175.47;10415304;28;20029;-86
2022/08/04 14:47:43;;;;;;;5.55;1.05;;;;;;;32.43;61.50;101169.28;10399275;28;20228;-86
2022/08/04 14:52:44;;;;;;;4.05;1.38;;;;;;;31.95;61.41;101164.44;10398951;28;20078;-82
2022/08/04 14:57:44;;;;;;;5.97;1.45;;;;;;;32.58;59.99;101168.19;10381726;28;20037;-83
2022/08/04 15:02:45;;;;;;;1.30;0.80;;;;;;;32.52;59.33;101164.88;10398868;28;20048;-81
2022/08/04 15:07:45;;;;;;;2.10;0.95;;;;;;;32.07;60.24;101177.59;10387613;28;20044;-85
2022/08/04 15:12:46;;;;;;;2.00;0.80;;;;;;;31.27;60.40;101178.00;10455124;28;20040;-83
2022/08/04 15:17:46;;;;;;;5.50;1.65;;;;;;;30.83;66.92;101202.22;10439532;28;20119;-86
2022/08/04 15:22:47;;;;;;;10.15;2.50;;;;;;;30.86;70.02;101223.34;10407474;28;20041;-87
2022/08/04 15:27:48;;;;;;;7.45;1.90;;;;;;;31.46;67.42;101177.84;10420357;28;20101;-80
2022/08/04 15:32:53;;;;;;;6.72;1.70;;;;;;;30.87;65.11;101168.16;10438979;28;20060;-79
2022/08/04 15:37:56;;;;;;;12.10;1.88;;;;;;;29.74;64.42;101198.88;10469573;28;20049;-79
2022/08/04 15:43:09;;;;;;;4.97;1.50;;;;;;;29.81;65.12;101218.06;10454612;28;20044;-87
2022/08/04 15:48:10;;;;;;;5.00;1.63;;;;;;;29.83;63.36;101224.19;10455072;28;20087;-85
2022/08/04 15:53:10;;;;;;;5.22;1.85;;;;;;;28.62;69.09;101233.78;10453634;28;20044;-80
2022/08/04 15:58:12;;;;;;;3.38;1.70;;;;;;;27.55;71.30;101247.63;10420798;28;20037;-85
2022/08/04 16:03:34;;;;;;;7.18;2.10;;;;;;;27.78;73.57;101266.81;10437917;28;20047;-84
2022/08/04 16:08:47;;;;;;;2.83;1.60;;;;;;;27.17;73.86;101280.03;10454285;28;20037;-82
2022/08/04 16:14:08;;;;;;;20.73;17.40;;;;;;;26.44;76.03;101286.59;10437939;28;20045;-79
2022/08/04 16:19:22;;;;;;;4.03;1.75;;;;;;;26.30;74.66;101281.28;10412899;28;20048;-80
2022/08/04 16:24:39;;;;;;;5.43;1.35;;;;;;;26.00;76.95;101291.13;10430008;28;20045;-81
2022/08/04 16:29:39;;;;;;;2.97;1.20;;;;;;;26.10;79.32;101296.31;10412029;28;20037;-81
2022/08/04 16:34:58;;;;;;;4.80;2.53;;;;;;;25.78;81.25;101296.78;10412121;28;20034;-79
2022/08/04 16:40:27;;;;;;;5.32;1.90;;;;;;;25.59;81.40;101313.44;10417655;28;20068;-83
2022/08/04 16:45:41;;;;;;;6.97;2.17;;;;;;;24.99;85.45;101315.50;10404274;28;20042;-84
2022/08/04 16:50:56;;;;;;;3.67;1.70;;;;;;;24.65;86.81;101297.69;10451170;28;20037;-81
2022/08/04 16:55:57;;;;;;;4.70;1.63;;;;;;;24.51;85.59;101319.63;10477940;28;20075;-85
2022/08/04 17:00:58;;;;;;;5.75;1.73;;;;;;;24.37;86.76;101331.91;10443322;28;20041;-83
2022/08/04 17:06:14;;;;;;;10.45;3.17;;;;;;;24.45;96.93;101344.28;10445045;28;20037;-79
2022/08/04 17:11:15;;;;;;;6.63;2.63;;;;;;;24.23;100.00;101334.09;10444993;28;20033;-81
2022/08/04 17:16:18;;;;;;;8.48;2.80;;;;;;;23.90;99.61;101345.94;10444545;28;20124;-79
2022/08/04 17:21:26;;;;;;;5.63;2.00;;;;;;;23.72;100.00;101361.97;10388662;28;20046;-79
2022/08/04 17:26:28;;;;;;;7.28;2.40;;;;;;;23.44;100.00;101336.22;10386873;28;20045;-80
2022/08/04 17:31:29;;;;;;;12.55;3.00;;;;;;;23.44;100.00;101355.03;10446602;28;20046;-80
2022/08/04 17:36:30;;;;;;;5.28;2.00;;;;;;;23.35;100.00;101357.84;10459844;28;20047;-79
2022/08/04 17:41:31;;;;;;;9.13;2.90;;;;;;;23.29;100.00;101359.97;10411189;28;20053;-80
2022/08/04 17:46:37;;;;;;;5.05;1.50;;;;;;;23.15;100.00;101367.72;10441806;28;20045;-80
2022/08/04 17:51:47;;;;;;;2.72;1.40;;;;;;;22.80;100.00;101359.22;10458493;28;20492;-81
2022/08/04 17:56:49;;;;;;;3.88;1.40;;;;;;;22.46;99.73;101355.09;10442102;28;20048;-81
2022/08/04 18:01:49;;;;;;;4.45;1.50;;;;;;;22.30;100.00;101362.28;10458904;28;20044;-82
2022/08/04 18:06:55;;;;;;;6.03;1.00;;;;;;;22.19;100.00;101364.50;10439745;28;20047;-80
2022/08/04 18:12:00;;;;;;;3.53;1.33;;;;;;;22.13;99.96;101379.81;10458116;28;20040;-80
2022/08/04 18:17:01;;;;;;;5.20;2.63;;;;;;;22.22;100.00;101365.84;10458093;28;20036;-81
2022/08/04 18:22:04;;;;;;;3.13;1.20;;;;;;;22.31;100.00;101381.59;10418502;28;20072;-81
2022/08/04 18:27:05;;;;;;;8.05;1.48;;;;;;;22.08;100.00;101388.38;10434021;28;20033;-81
2022/08/04 18:32:06;;;;;;;4.03;1.77;;;;;;;21.69;100.00;101403.91;10424363;28;20056;-82
2022/08/04 18:37:07;;;;;;;8.23;1.58;;;;;;;21.35;100.00;101394.84;10416067;28;20037;-82
2022/08/04 18:42:07;;;;;;;5.80;2.63;;;;;;;21.21;100.00;101404.41;10421512;28;20099;-79
2022/08/04 18:47:09;;;;;;;4.57;1.30;;;;;;;21.06;100.00;101392.41;10413683;28;20040;-80
2022/08/04 18:52:09;;;;;;;2.53;1.30;;;;;;;21.06;100.00;101409.19;10429454;28;20036;-79
2022/08/04 18:57:10;;;;;;;5.10;1.45;;;;;;;20.89;100.00;101409.00;10456383;28;20033;-80
2022/08/04 19:02:10;;;;;;;3.60;1.52;;;;;;;20.81;100.00;101429.31;10427868;28;20071;-82
2022/08/04 19:07:14;;;;;;;6.05;2.10;;;;;;;20.69;100.00;101441.88;10438150;28;20056;-80
2022/08/04 19:12:14;;;;;;;5.68;1.50;;;;;;;20.58;100.00;101443.19;10408860;28;20041;-82
2022/08/04 19:17:15;;;;;;;5.80;2.20;;;;;;;20.58;100.00;101454.38;10424293;28;20041;-81
2022/08/04 19:22:15;;;;;;;4.28;1.63;;;;;;;20.47;100.00;101459.28;10454081;28;20061;-78
2022/08/04 19:27:16;;;;;;;13.65;1.80;;;;;;;20.39;100.00;101457.19;10411563;28;20026;-82
2022/08/04 19:32:16;;;;;;;5.50;1.55;;;;;;;20.29;100.00;101457.38;10416415;28;20037;-81
2022/08/04 19:37:17;;;;;;;7.35;2.20;;;;;;;20.17;100.00;101455.06;10433682;28;20063;-82
2022/08/04 19:42:18;;;;;;;4.25;1.75;;;;;;;20.14;100.00;101450.91;10437931;28;20033;-82
2022/08/04 19:47:18;;;;;;;6.20;1.58;;;;;;;20.05;100.00;101451.91;10437256;28;20033;-81
2022/08/04 19:52:19;;;;;;;8.55;1.77;;;;;;;19.82;100.00;101443.31;10414996;28;20036;-80
2022/08/04 19:57:19;;;;;;;12.50;2.80;;;;;;;19.78;100.00;101452.59;10414424;28;20033;-82
2022/08/04 20:02:20;;;;;;;7.60;2.20;;;;;;;19.51;100.00;101432.59;10413582;28;20051;-80
2022/08/04 20:07:20;;;;;;;11.45;2.55;;;;;;;19.45;100.00;101453.34;10438145;28;20055;-82
2022/08/04 20:12:21;;;;;;;9.40;1.75;;;;;;;19.43;100.00;101463.13;10420168;28;20036;-81
2022/08/04 20:17:22;;;;;;;6.95;1.70;;;;;;;19.33;100.00;101469.69;10422564;28;20083;-81
2022/08/04 20:22:22;;;;;;;9.02;3.53;;;;;;;19.26;100.00;101486.78;10436090;28;20069;-82
2022/08/04 20:27:23;;;;;;;8.88;1.90;;;;;;;19.10;100.00;101488.94;10436133;28;20033;-82
2022/08/04 20:32:24;;;;;;;8.38;2.55;;;;;;;19.02;100.00;101483.19;10434036;28;20119;-81
2022/08/04 20:37:25;;;;;;;6.22;1.95;;;;;;;19.03;100.00;101484.84;10419096;28;20054;-81
2022/08/04 20:42:27;;;;;;;9.05;2.22;;;;;;;19.09;100.00;101492.03;10399570;28;20045;-81
2022/08/04 20:47:28;;;;;;;7.05;2.38;;;;;;;18.97;100.00;101483.25;10420614;28;20041;-84
2022/08/04 20:52:29;;;;;;;9.60;2.70;;;;;;;18.83;100.00;101477.53;10404493;28;20059;-82
2022/08/04 20:57:29;;;;;;;9.90;3.30;;;;;;;18.73;100.00;101484.84;10396393;28;20132;-76
2022/08/04 21:02:30;;;;;;;6.40;3.15;;;;;;;18.67;100.00;101488.81;10452907;28;20501;-81
2022/08/04 21:07:30;;;;;;;6.80;2.80;;;;;;;18.62;100.00;101504.75;10395524;28;20064;-81
2022/08/04 21:12:31;;;;;;;8.48;2.90;;;;;;;18.54;100.00;101509.00;10426086;28;20089;-81
2022/08/04 21:17:31;;;;;;;9.27;3.10;;;;;;;18.50;100.00;101519.09;10434395;28;20547;-81
2022/08/04 21:22:32;;;;;;;12.45;3.97;;;;;;;18.45;100.00;101535.88;10404293;28;20044;-81
2022/08/04 21:27:32;;;;;;;7.38;2.88;;;;;;;18.43;100.00;101527.78;10407791;28;20052;-83
2022/08/04 21:32:33;;;;;;;9.73;2.70;;;;;;;18.32;100.00;101496.38;10458799;28;20112;-82
2022/08/04 21:37:33;;;;;;;7.05;2.75;;;;;;;18.32;100.00;101496.38;10442093;28;20048;-80
2022/08/04 21:42:34;;;;;;;12.77;3.45;;;;;;;18.33;100.00;101528.72;10382779;28;20046;-82
2022/08/04 21:47:34;;;;;;;8.00;3.45;;;;;;;18.28;100.00;101527.94;10432477;28;20037;-82
2022/08/04 21:52:35;;;;;;;7.50;2.88;;;;;;;18.04;100.00;101508.31;10440250;28;20044;-85
2022/08/04 21:57:35;;;;;;;8.60;3.13;;;;;;;18.15;100.00;101524.66;10418553;28;20032;-82
2022/08/04 22:02:36;;;;;;;8.10;2.30;;;;;;;18.08;100.00;101521.38;10402440;28;21522;-83
2022/08/04 22:07:36;;;;;;;11.65;2.67;;;;;;;18.06;100.00;101522.78;10365946;28;20128;-80
2022/08/04 22:12:37;;;;;;;10.40;2.97;;;;;;;18.04;100.00;101523.06;10417819;28;20074;-83
2022/08/04 22:17:39;;;;;;;12.77;3.60;;;;;;;17.83;100.00;101502.88;10408209;28;20044;-82
2022/08/04 22:22:39;;;;;;;8.52;2.72;;;;;;;17.96;100.00;101532.03;10428283;28;20075;-81
2022/08/04 22:27:58;;;;;;;8.52;3.05;;;;;;;17.90;100.00;101519.25;10459798;28;20075;-82
2022/08/04 22:32:59;;;;;;;5.25;2.97;;;;;;;17.85;100.00;101542.41;10417539;28;20041;-82
2022/08/04 22:37:59;;;;;;;8.20;3.78;;;;;;;17.77;100.00;101537.41;10409519;28;20041;-82
2022/08/04 22:43:01;;;;;;;9.60;4.38;;;;;;;17.76;100.00;101555.25;10409702;28;20083;-83
2022/08/04 22:48:02;;;;;;;8.45;3.60;;;;;;;17.82;100.00;101564.38;10456606;28;20279;-83
2022/08/04 22:53:03;;;;;;;9.57;4.40;;;;;;;17.80;100.00;101545.19;10412486;28;20026;-82
2022/08/04 22:58:03;;;;;;;9.43;4.47;;;;;;;17.95;100.00;101561.84;10451469;28;20042;-83
2022/08/04 23:03:04;;;;;;;11.63;4.28;;;;;;;18.05;100.00;101558.19;10420477;28;20093;-83
2022/08/04 23:08:04;;;;;;;10.05;4.05;;;;;;;18.10;100.00;101549.78;10427922;28;20056;-80